North Hollywood, CA (91617)

9:10 AM PST on February 11, 2016 (GMT -0800)
North Hollywood, CA | | Change Station
CLOSE
Current Station
Personal Weather Station
Location: North Hollywood, CA
Elevation: 679 ft
Nearby Weather Stations

Elev 679 ft 34.18 °N, 118.37 °W | Updated 4 seconds ago

Clear
Clear
61.7 °F
Feels Like 61.7 °F
N
0.0
Wind Variable Wind from SSE
Gusts 0.0 mph

Today
High -- | Low -- °F
--% Chance of Precip.
Yesterday
High -- | Low -- °F
Precip. -- in
Pressure 30.09 in
Visibility 10.0 miles
Clouds Clear
Dew Point 28 °F
Humidity 28%
Rainfall 0.00 in
Snow Depth Not available.
6:42 AM 5:33 PM
Waxing Crescent, 13% visible
METAR KBUR 111653Z 00000KT 10SM CLR 19/01 A3013 RMK AO2 SLP190 T01940006
Pressure 30.09 in
Visibility 10.0 miles
Clouds Clear
Dew Point 28 °F
Humidity 28%
Rainfall 0.00 in
Snow Depth Not available.
6:42 AM 5:33 PM
Waxing Crescent, 13% visible
METAR KBUR 111653Z 00000KT 10SM CLR 19/01 A3013 RMK AO2 SLP190 T01940006

10-Day Weather Forecast

Almanac

Astronomy

Feb. 11, 2016 Rise Set
Actual Time
Civil Twilight
Nautical Twilight
Astronomical Twilight
Moon
Length of Visible Light
Length of Day
Tomorrow will be .
, % of the Moon is Illuminated

Today's Extremes

State Highs State Lows

Community

WunderPhotos

Upload Photos

1,892,102 photos uploaded!

WunderBlog® & News

Nearby

Air Quality

  Air Quality AQ Index Pollutant
Not available.

Snow Depth

Station Depth Elevation

Earthquake Activity

City Distance Mag. Time & Date
Minimum magnitude displayed is 2.5.

Coastal Water Temperatures

Place Temperature

Stations

Nearby Weather Stations

Station Location Temp. Windchill Dew Point Humidity Wind Precip. Elev Updated Type
                   

Watches & Warnings

There are currently no watches in effect.